KELK/ELK METAR and TAF weather

Enter ICAO airport designator
Station Type Date Time Source
KELK METAR 2018/04/26 14:55 UTC NOAA

KELK 261455Z AUTO 20008KT 10SM CLR 14/06 A3001 RMK AO2 T01410061


Station Type Date Time Source
KELK Decoded METAR 2018/04/26 14:55 UTC NOAA

Station name not available
Apr 26, 2018 - 10:55 AM EDT / 2018.04.26 1455 UTC
Wind: from the SSW (200 degrees) at 9 MPH (8 KT):0
Visibility: 10 mile(s):0
Sky conditions: clear
Temperature: 57.4 F (14.1 C)
Dew Point: 43.0 F (6.1 C)
Relative Humidity: 58%
Pressure (altimeter): 30.01 in. Hg (1016 hPa)
ob: KELK 261455Z AUTO 20008KT 10SM CLR 14/06 A3001 RMK AO2 T01410061
cycle: 15

Station Type Date Time Source
KELK TAF UTC NOAA

Error!


Example: see airport list